Time;durP1;ratioP1;P1;durP2;ratioP2;P2;SDS_P1;SDS_P2;PMS_P1;PMS_P2;Temp;Humidity;BMP_temperature;BMP_pressure;BME280_temperature;BME280_humidity;BME280_pressure;Samples;Min_cycle;Max_cycle;Signal;HPM_P1;HPM_P2
2021/04/12 00:03:11;;;;;;;;;;;10.30;99.90;;;9.36;75.59;95449.75;10260594;28;2020;-83
2021/04/12 00:08:13;;;;;;;;;;;10.30;99.90;;;9.17;76.15;95461.06;10253528;29;2032;-82
2021/04/12 00:13:15;;;;;;;;;;;10.30;99.90;;;9.23;76.28;95458.38;10263068;28;2047;-83
2021/04/12 00:18:17;;;;;;;;;;;10.20;99.90;;;9.34;75.35;95457.25;10276374;28;2014;-83
2021/04/12 00:23:19;;;;;;;;;;;10.20;99.90;;;9.42;74.87;95452.16;10264941;28;2025;-83
2021/04/12 00:28:20;;;;;;;;;;;10.30;99.90;;;9.51;74.86;95451.56;10258795;28;1979;-82
2021/04/12 00:33:22;;;;;;;;;;;10.40;99.90;;;9.36;75.19;95444.41;10260293;29;1957;-81
2021/04/12 00:38:24;;;;;;;;;;;10.40;99.90;;;9.20;76.00;95441.75;10258826;28;2035;-81
2021/04/12 00:43:26;;;;;;;;;;;10.30;99.90;;;9.26;75.60;95439.06;10285990;28;1952;-84
2021/04/12 00:48:27;;;;;;;;;;;10.20;99.90;;;9.38;75.25;95442.22;10262011;28;2094;-82
2021/04/12 00:53:29;;;;;;;;;;;10.20;99.90;;;9.28;75.32;95440.38;10256062;29;1992;-82
2021/04/12 00:58:31;;;;;;;;;;;10.30;99.90;;;9.24;75.98;95442.00;10253423;28;2357;-82
2021/04/12 01:03:32;;;;;;;;;;;10.20;99.90;;;9.23;75.32;95445.78;10258657;28;3313;-83
2021/04/12 01:08:34;;;;;;;;;;;10.20;99.90;;;9.20;75.39;95447.09;10255334;28;2812;-82
2021/04/12 01:13:36;;;;;;;;;;;10.20;99.90;;;9.20;75.50;95457.03;10259220;28;2040;-84
2021/04/12 01:18:37;;;;;;;;;;;10.20;99.90;;;9.19;75.01;95450.88;10255010;28;2083;-83
2021/04/12 01:23:39;;;;;;;;;;;10.10;99.90;;;9.14;75.36;95450.06;10246674;29;2438;-84
2021/04/12 01:28:41;;;;;;;;;;;10.10;99.90;;;9.09;74.76;95445.53;10245286;29;2001;-84
2021/04/12 01:33:43;;;;;;;;;;;10.00;99.90;;;9.15;74.79;95460.53;10252114;28;1959;-83
2021/04/12 01:38:45;;;;;;;;;;;10.00;99.90;;;9.13;74.67;95457.31;10253448;28;2516;-83
2021/04/12 01:43:47;;;;;;;;;;;10.00;99.90;;;9.03;74.89;95459.22;10253603;29;2058;-83
2021/04/12 01:48:49;;;;;;;;;;;10.00;99.90;;;8.98;74.68;95460.03;10251476;28;2050;-82
2021/04/12 01:53:50;;;;;;;;;;;10.00;99.90;;;8.96;74.65;95464.84;10259976;28;1964;-82
2021/04/12 01:58:52;;;;;;;;;;;9.90;99.90;;;8.97;74.53;95473.69;10258211;29;2043;-81
2021/04/12 02:03:54;;;;;;;;;;;9.90;99.90;;;9.01;73.91;95474.78;10258336;29;2230;-85
2021/04/12 02:08:56;;;;;;;;;;;10.80;99.90;;;8.90;75.09;95469.41;10267144;29;1834;-84
2021/04/12 02:13:58;;;;;;;;;;;9.90;99.90;;;8.80;75.38;95465.97;10255217;29;2262;-83
2021/04/12 02:18:59;;;;;;;;;;;9.80;99.90;;;8.78;75.22;95473.44;10255088;28;1932;-82
2021/04/12 02:24:01;;;;;;;;;;;9.70;99.90;;;8.68;75.72;95476.94;10299966;28;1955;-82
2021/04/12 02:29:03;;;;;;;;;;;9.60;99.90;;;8.69;76.55;95469.72;10262902;29;1775;-82
2021/04/12 02:34:04;;;;;;;;;;;10.70;99.90;;;8.60;76.22;95469.47;10259698;28;2046;-84
2021/04/12 02:39:06;;;;;;;;;;;9.60;99.90;;;8.62;76.99;95478.81;10259544;28;2331;-82
2021/04/12 02:44:08;;;;;;;;;;;9.50;99.90;;;8.61;77.14;95471.06;10267170;29;2072;-82
2021/04/12 02:49:09;;;;;;;;;;;9.60;99.90;;;8.64;76.63;95475.88;10288199;28;2057;-80
2021/04/12 02:54:11;;;;;;;;;;;9.50;99.90;;;8.64;76.93;95478.53;10265698;28;2120;-84
2021/04/12 02:59:13;;;;;;;;;;;9.60;99.90;;;8.57;78.00;95486.84;10251627;28;2113;-83
2021/04/12 03:04:14;;;;;;;;;;;9.60;99.90;;;8.60;77.80;95486.34;10248719;29;2048;-82
2021/04/12 03:09:16;;;;;;;;;;;9.50;99.90;;;8.54;78.04;95489.28;10258128;28;1922;-83
2021/04/12 03:14:18;;;;;;;;;;;9.80;99.90;;;8.64;78.48;95502.66;10278048;28;2180;-81
2021/04/12 03:19:19;;;;;;;;;;;9.50;99.90;;;8.44;79.01;95503.47;10258656;28;2192;-83
2021/04/12 03:24:21;;;;;;;;;;;9.50;99.90;;;8.36;79.56;95515.50;10263823;29;2132;-82
2021/04/12 03:29:23;;;;;;;;;;;9.40;99.90;;;8.18;79.30;95509.81;10257561;28;2089;-83
2021/04/12 03:34:25;;;;;;;;;;;9.10;99.90;;;8.11;77.82;95526.13;10275690;29;2043;-81
2021/04/12 03:39:26;;;;;;;;;;;10.20;99.90;;;8.03;77.99;95524.78;10261412;28;2029;-84
2021/04/12 03:44:28;;;;;;;;;;;9.10;99.90;;;7.96;77.14;95529.56;10263938;29;1950;-82
2021/04/12 03:49:30;;;;;;;;;;;9.80;99.90;;;7.97;76.97;95528.50;10275680;28;1934;-81
2021/04/12 03:54:32;;;;;;;;;;;8.90;99.90;;;7.84;77.93;95529.00;10251111;28;2277;-83
2021/04/12 03:59:34;;;;;;;;;;;8.80;99.90;;;7.63;81.05;95551.34;10259861;28;2046;-83
2021/04/12 04:04:36;;;;;;;;;;;8.70;99.90;;;7.20;81.63;95546.06;10253378;28;2180;-83
2021/04/12 04:09:37;;;;;;;;;;;9.20;99.90;;;6.90;84.55;95546.63;10260614;28;1973;-82
2021/04/12 04:14:39;;;;;;;;;;;8.50;99.90;;;6.59;86.54;95558.91;10263193;28;2014;-82
2021/04/12 04:19:41;;;;;;;;;;;7.70;99.90;;;6.31;87.82;95578.69;10249438;28;2488;-84
2021/04/12 04:24:44;;;;;;;;;;;7.40;99.90;;;6.16;89.52;95587.31;10249129;28;2093;-84
2021/04/12 04:29:46;;;;;;;;;;;8.40;99.90;;;6.03;89.58;95602.91;10253015;28;2251;-82
2021/04/12 04:34:48;;;;;;;;;;;7.00;99.90;;;5.90;90.25;95609.38;10249000;29;2111;-82
2021/04/12 04:39:50;;;;;;;;;;;8.20;99.90;;;5.90;90.79;95614.72;10273846;28;2062;-82
2021/04/12 04:44:52;;;;;;;;;;;8.00;99.90;;;5.77;91.38;95625.75;10271261;28;2049;-80
2021/04/12 04:49:54;;;;;;;;;;;6.80;99.90;;;5.52;90.70;95648.34;10269089;29;2066;-79
2021/04/12 04:54:56;;;;;;;;;;;6.70;99.90;;;5.20;90.78;95666.78;10278631;28;1950;-79
2021/04/12 04:59:57;;;;;;;;;;;6.30;99.90;;;4.78;91.67;95677.81;10275081;29;2155;-79
2021/04/12 05:04:59;;;;;;;;;;;5.90;99.90;;;4.52;92.01;95683.72;10282856;28;2096;-81
2021/04/12 05:10:01;;;;;;;;;;;5.70;99.90;;;4.28;92.38;95701.63;10284716;28;2017;-80
2021/04/12 05:15:03;;;;;;;;;;;5.60;99.90;;;4.16;92.86;95717.59;10278487;28;2083;-80
2021/04/12 05:20:06;;;;;;;;;;;6.70;99.90;;;4.12;93.86;95748.38;10281533;28;2089;-81
2021/04/12 05:25:07;;;;;;;;;;;5.00;99.90;;;4.11;93.98;95765.38;10262376;28;2116;-81
2021/04/12 05:30:09;;;;;;;;;;;5.60;99.90;;;3.56;92.85;95781.66;10251323;28;2159;-81
2021/04/12 05:35:11;;;;;;;;;;;4.80;99.90;;;3.41;93.31;95789.25;10278969;28;2161;-81
2021/04/12 05:40:13;;;;;;;;;;;6.10;99.90;;;2.96;92.84;95793.16;10263752;28;2009;-82
2021/04/12 05:45:15;;;;;;;;;;;4.10;99.90;;;2.76;93.43;95813.88;10258692;29;2120;-80
2021/04/12 05:50:16;;;;;;;;;;;3.80;99.90;;;2.53;93.73;95821.69;10262141;28;2149;-82
2021/04/12 05:55:18;;;;;;;;;;;3.60;99.90;;;2.44;93.75;95842.41;10245942;29;2069;-81
2021/04/12 06:00:20;;;;;;;;;;;3.40;99.90;;;2.20;93.04;95861.84;10244439;29;2054;-82
2021/04/12 06:05:21;;;;;;;;;;;3.30;99.90;;;1.70;92.73;95885.69;10269288;28;1907;-81
2021/04/12 06:10:23;;;;;;;;;;;2.80;99.90;;;1.47;93.43;95889.72;10270914;28;2034;-80
2021/04/12 06:15:25;;;;;;;;;;;2.50;99.90;;;1.22;93.04;95902.09;10267952;28;1901;-79
2021/04/12 06:20:26;;;;;;;;;;;2.40;99.90;;;1.32;93.96;95902.44;10256186;29;1983;-81
2021/04/12 06:25:28;;;;;;;;;;;2.20;99.90;;;1.41;94.00;95906.47;10287939;29;1919;-79
2021/04/12 06:30:30;;;;;;;;;;;2.20;99.90;;;1.43;93.79;95916.84;10273084;28;1966;-81
2021/04/12 06:35:32;;;;;;;;;;;2.30;99.90;;;1.35;93.43;95931.97;10291160;28;1972;-81
2021/04/12 06:40:33;;;;;;;;;;;2.30;99.90;;;1.26;92.63;95943.81;10283857;28;1771;-83
2021/04/12 06:45:35;;;;;;;;;;;2.20;99.90;;;1.12;93.30;95970.56;10253664;28;2020;-80
2021/04/12 06:50:37;;;;;;;;;;;2.10;99.90;;;1.15;93.47;96007.25;10254034;28;2039;-81
2021/04/12 06:55:39;;;;;;;;;;;2.10;99.90;;;1.10;94.00;96009.69;10258256;28;1919;-80
2021/04/12 07:00:40;;;;;;;;;;;2.00;99.90;;;1.01;93.64;96007.25;10269242;28;2102;-81
2021/04/12 07:05:42;;;;;;;;;;;1.90;99.90;;;0.82;94.00;96014.22;10268655;28;2335;-80
2021/04/12 07:10:44;;;;;;;;;;;1.80;99.90;;;0.84;93.82;96044.97;10259773;28;2075;-79
2021/04/12 07:15:46;;;;;;;;;;;1.70;99.90;;;0.93;94.22;96054.31;10262081;28;2039;-80
2021/04/12 07:20:47;;;;;;;;;;;1.70;99.90;;;1.13;94.44;96070.97;10300307;28;1802;-82
2021/04/12 07:25:49;;;;;;;;;;;1.90;99.90;;;1.18;94.10;96086.25;10299373;28;1950;-79
2021/04/12 07:30:51;;;;;;;;;;;2.60;99.90;;;1.56;93.65;96099.59;10291268;28;2035;-81
2021/04/12 07:35:53;;;;;;;;;;;2.20;99.90;;;1.32;92.55;96117.78;10276131;28;2157;-81
2021/04/12 07:40:54;;;;;;;;;;;2.20;99.90;;;1.24;92.68;96125.13;10260532;28;2027;-80
2021/04/12 07:45:58;;;;;;;;;;;2.10;99.90;;;1.23;92.86;96139.41;10248631;28;2116;-82
2021/04/12 07:51:00;;;;;;;;;;;2.00;99.90;;;1.26;93.04;96138.97;10266306;28;1975;-81
2021/04/12 07:56:02;;;;;;;;;;;2.00;99.90;;;1.40;92.96;96145.06;10267424;29;1984;-80
2021/04/12 08:01:04;;;;;;;;;;;2.10;99.90;;;1.45;92.89;96156.66;10250917;28;2051;-81
2021/04/12 08:06:06;;;;;;;;;;;2.20;99.90;;;1.34;92.28;96163.44;10263987;28;2305;-80
2021/04/12 08:11:08;;;;;;;;;;;2.20;99.90;;;1.56;92.73;96164.00;10256771;28;2032;-78
2021/04/12 08:16:09;;;;;;;;;;;2.30;99.90;;;1.68;92.71;96172.13;10272973;28;1804;-80
2021/04/12 08:21:11;;;;;;;;;;;2.40;99.90;;;1.78;91.92;96184.94;10254940;28;2108;-79
2021/04/12 08:26:13;;;;;;;;;;;2.60;99.90;;;1.73;91.55;96188.22;10260629;29;2048;-81
2021/04/12 08:31:23;;;;;;;;;;;2.50;99.90;;;1.75;92.08;96201.25;10267795;28;2285;-79
2021/04/12 08:36:26;;;;;;;;;;;2.50;99.90;;;1.84;91.25;96214.06;10275657;28;1948;-78
2021/04/12 08:41:31;;;;;;;;;;;2.70;99.90;;;2.13;91.49;96226.03;10253221;28;1958;-78
2021/04/12 08:46:33;;;;;;;;;;;2.80;99.90;;;2.22;91.23;96231.09;10269200;28;1841;-79
2021/04/12 08:51:36;;;;;;;;;;;2.90;99.90;;;2.36;89.57;96236.16;10247254;28;2147;-78
2021/04/12 08:56:37;;;;;;;;;;;3.10;99.90;;;2.63;89.81;96244.81;10250606;28;2096;-80
2021/04/12 09:01:39;;;;;;;;;;;3.30;99.90;;;2.66;90.24;96248.84;10257853;28;2035;-78
2021/04/12 09:06:41;;;;;;;;;;;3.40;99.90;;;2.86;88.48;96256.72;10246874;28;2126;-79
2021/04/12 09:11:43;;;;;;;;;;;3.60;99.90;;;2.62;88.45;96271.56;10236457;29;2012;-81
2021/04/12 09:16:45;;;;;;;;;;;3.50;99.90;;;2.39;88.41;96285.31;10237421;28;2405;-79
2021/04/12 09:21:48;;;;;;;;;;;3.30;99.90;;;2.51;89.10;96291.59;10281018;28;2031;-81
2021/04/12 09:26:51;;;;;;;;;;;3.30;99.90;;;2.62;89.21;96290.94;10267896;28;2275;-79
2021/04/12 09:31:52;;;;;;;;;;;3.30;99.90;;;2.58;87.99;96303.00;10255403;29;1994;-80
2021/04/12 09:36:56;;;;;;;;;;;3.30;99.90;;;2.33;87.50;96305.53;10245088;28;2039;-81
2021/04/12 09:41:57;;;;;;;;;;;3.30;99.90;;;2.41;87.77;96315.09;10251284;28;2141;-79
2021/04/12 09:47:01;;;;;;;;;;;3.90;99.90;;;2.67;87.03;96325.66;10263438;28;1952;-81
2021/04/12 09:52:04;;;;;;;;;;;3.40;99.90;;;2.58;86.95;96332.19;10263360;28;2050;-79
2021/04/12 09:57:10;;;;;;;;;;;3.30;99.90;;;2.57;85.68;96343.84;10234390;29;1955;-82
2021/04/12 10:02:12;;;;;;;;;;;3.40;99.90;;;2.51;85.69;96343.88;10241898;28;2271;-80
2021/04/12 10:07:14;;;;;;;;;;;3.30;99.90;;;2.86;84.18;96334.56;10244659;28;2124;-81
2021/04/12 10:12:16;;;;;;;;;;;3.50;99.90;;;3.09;83.55;96343.84;10251292;28;2054;-82
2021/04/12 10:17:18;;;;;;;;;;;4.80;99.90;;;3.05;82.26;96347.94;10258235;28;2011;-80
2021/04/12 10:22:20;;;;;;;;;;;3.90;99.90;;;2.56;83.10;96358.16;10241422;28;1997;-81
2021/04/12 10:27:21;;;;;;;;;;;3.60;99.90;;;3.05;85.20;96359.38;10244809;28;2090;-81
2021/04/12 10:32:24;;;;;;;;;;;4.60;99.90;;;2.70;83.81;96367.69;10239166;28;2012;-80
2021/04/12 10:37:27;;;;;;;;;;;3.70;99.90;;;2.29;84.31;96375.97;10246346;28;2385;-80
2021/04/12 10:42:29;;;;;;;;;;;3.50;99.90;;;2.24;86.42;96377.59;10241621;28;2065;-78
2021/04/12 10:47:31;;;;;;;;;;;3.20;99.90;;;2.39;87.31;96375.53;10244957;28;2428;-79
2021/04/12 10:52:33;;;;;;;;;;;3.30;99.90;;;2.50;85.87;96382.03;10258337;28;2304;-81
2021/04/12 10:57:40;;;;;;;;;;;3.40;99.90;;;2.49;84.54;96391.84;10253541;28;2050;-81
2021/04/12 11:02:41;;;;;;;;;;;3.40;99.90;;;2.36;85.68;96403.31;10259983;28;2159;-80
2021/04/12 11:07:44;;;;;;;;;;;3.40;99.90;;;2.99;86.21;96394.75;10251429;29;2020;-81
2021/04/12 11:12:46;;;;;;;;;;;3.60;99.90;;;3.33;85.37;96400.72;10248294;28;2115;-81
2021/04/12 11:17:47;;;;;;;;;;;4.00;99.90;;;3.31;85.09;96394.78;10243316;28;2008;-80
2021/04/12 11:22:51;;;;;;;;;;;4.10;99.90;;;3.41;83.86;96397.81;10240190;29;1915;-79
2021/04/12 11:27:53;;;;;;;;;;;4.30;99.90;;;3.56;85.50;96398.34;10250014;28;2085;-80
2021/04/12 11:32:55;;;;;;;;;;;4.30;99.90;;;3.41;83.42;96427.06;10245947;28;2129;-81
2021/04/12 11:37:57;;;;;;;;;;;5.00;99.90;;;3.72;81.83;96426.25;10256765;28;1971;-80
2021/04/12 11:42:59;;;;;;;;;;;4.50;99.90;;;3.79;84.50;96433.16;10260733;29;1900;-81
2021/04/12 11:48:01;;;;;;;;;;;4.60;99.90;;;3.75;80.56;96426.66;10255315;29;1984;-81
2021/04/12 11:53:04;;;;;;;;;;;4.60;99.90;;;3.31;78.69;96434.66;10251179;29;2034;-80
2021/04/12 11:58:06;;;;;;;;;;;4.40;99.90;;;3.52;82.36;96434.38;10259822;29;2038;-83
2021/04/12 12:03:08;;;;;;;;;;;4.30;99.90;;;3.22;82.25;96445.53;10259940;28;1974;-81
2021/04/12 12:08:10;;;;;;;;;;;4.20;99.90;;;2.85;84.16;96462.19;10248527;29;1960;-80
2021/04/12 12:13:12;;;;;;;;;;;4.00;99.90;;;2.68;85.92;96461.84;10248891;28;2040;-81
2021/04/12 12:18:13;;;;;;;;;;;3.80;99.90;;;2.86;86.03;96455.84;10246101;28;2297;-79
2021/04/12 12:23:15;;;;;;;;;;;3.70;99.90;;;3.20;85.03;96457.41;10249019;28;2037;-81
2021/04/12 12:28:17;;;;;;;;;;;3.90;99.90;;;3.42;82.73;96466.69;10255862;28;2007;-82
2021/04/12 12:33:19;;;;;;;;;;;4.20;99.90;;;3.66;85.96;96473.13;10248561;28;2054;-82
2021/04/12 12:38:21;;;;;;;;;;;4.50;99.90;;;3.59;86.44;96485.66;10251514;28;2200;-80
2021/04/12 12:43:23;;;;;;;;;;;4.40;99.90;;;3.87;86.26;96484.47;10241992;28;2051;-81
2021/04/12 12:48:25;;;;;;;;;;;4.70;99.90;;;3.24;82.89;96485.16;10239359;28;2095;-81
2021/04/12 12:53:26;;;;;;;;;;;4.30;99.90;;;3.21;83.52;96490.91;10252681;28;2072;-82
2021/04/12 12:58:28;;;;;;;;;;;4.10;99.90;;;3.17;82.63;96485.19;10265698;28;1972;-79
2021/04/12 13:03:30;;;;;;;;;;;4.10;99.90;;;3.57;83.71;96484.25;10254745;29;2018;-81
2021/04/12 13:08:34;;;;;;;;;;;4.30;99.90;;;3.50;80.86;96478.97;10240175;29;1934;-81
2021/04/12 13:13:36;;;;;;;;;;;4.40;99.90;;;3.41;82.38;96474.91;10243698;28;1983;-80
2021/04/12 13:18:39;;;;;;;;;;;6.10;99.90;;;3.41;81.01;96480.22;10243164;28;1995;-80
2021/04/12 13:23:41;;;;;;;;;;;4.30;99.90;;;3.15;81.01;96495.22;10246359;28;2015;-80
2021/04/12 13:28:43;;;;;;;;;;;4.10;99.90;;;3.28;83.01;96501.53;10244324;29;1948;-83
2021/04/12 13:33:44;;;;;;;;;;;5.60;99.90;;;3.47;81.85;96500.63;10235873;28;2008;-81
2021/04/12 13:38:46;;;;;;;;;;;4.40;99.90;;;3.51;82.67;96507.16;10237513;28;2087;-81
2021/04/12 13:43:48;;;;;;;;;;;4.50;99.90;;;2.91;84.04;96509.16;10246130;28;2004;-80
2021/04/12 13:48:50;;;;;;;;;;;4.50;99.90;;;2.52;86.65;96510.03;10276452;28;1635;-83
2021/04/12 13:53:51;;;;;;;;;;;3.70;99.90;;;2.27;87.98;96515.13;10272174;28;2008;-81
2021/04/12 13:58:53;;;;;;;;;;;3.30;99.90;;;2.29;89.95;96515.72;10263959;28;2023;-81
2021/04/12 14:03:55;;;;;;;;;;;3.20;99.90;;;2.17;89.19;96521.66;10266773;29;1964;-81
2021/04/12 14:08:57;;;;;;;;;;;3.10;99.90;;;2.24;89.88;96524.31;10245653;28;1882;-81
2021/04/12 14:13:58;;;;;;;;;;;3.10;99.90;;;1.90;89.13;96525.25;10236422;28;2019;-80
2021/04/12 14:19:00;;;;;;;;;;;3.70;99.90;;;1.61;90.44;96532.53;10238405;28;1964;-81
2021/04/12 14:24:02;;;;;;;;;;;2.80;99.90;;;1.83;91.22;96540.34;10243324;28;2035;-81
2021/04/12 14:29:04;;;;;;;;;;;2.70;99.90;;;1.98;90.06;96548.16;10244579;28;2024;-80
2021/04/12 14:34:06;;;;;;;;;;;2.80;99.90;;;2.10;87.45;96547.38;10238659;29;2040;-80
2021/04/12 14:39:07;;;;;;;;;;;3.30;99.90;;;2.09;85.98;96551.00;10238378;28;2074;-79
2021/04/12 14:44:09;;;;;;;;;;;3.60;99.90;;;2.33;88.49;96556.75;10252451;28;2008;-80
2021/04/12 14:49:11;;;;;;;;;;;3.00;99.90;;;2.39;87.04;96556.78;10246427;28;1797;-81
2021/04/12 14:54:13;;;;;;;;;;;3.30;99.90;;;2.54;88.91;96555.75;10250889;28;1952;-80
2021/04/12 14:59:14;;;;;;;;;;;3.40;99.90;;;2.53;89.65;96557.59;10247019;28;2059;-79
2021/04/12 15:04:16;;;;;;;;;;;4.80;99.90;;;2.32;89.26;96566.56;10236067;28;1966;-81
2021/04/12 15:09:18;;;;;;;;;;;3.40;99.90;;;2.03;88.90;96573.03;10241344;28;2056;-81
2021/04/12 15:14:20;;;;;;;;;;;4.10;99.90;;;2.02;89.13;96576.69;10244950;28;2070;-82
2021/04/12 15:19:22;;;;;;;;;;;3.00;99.90;;;1.67;89.38;96583.94;10248792;29;2080;-79
2021/04/12 15:24:24;;;;;;;;;;;3.00;99.90;;;1.75;90.35;96596.19;10244781;28;2040;-80
2021/04/12 15:29:48;;;;;;;;;;;2.70;99.90;;;1.71;89.96;96595.75;11136291;23;3281;-78
2021/04/12 15:34:50;;;;;;;;;;;3.10;99.90;;;1.88;90.08;96601.53;10316481;28;3404;-78
2021/04/12 15:39:52;;;;;;;;;;;2.80;99.90;;;1.87;90.27;96606.03;10286635;28;3065;-81
2021/04/12 15:44:53;;;;;;;;;;;2.80;99.90;;;1.72;89.40;96607.19;10275701;28;2421;-79
2021/04/12 15:49:57;;;;;;;;;;;3.40;99.90;;;1.64;90.46;96610.81;10286028;28;2016;-82
2021/04/12 15:55:01;;;;;;;;;;;2.70;99.90;;;1.27;91.52;96620.84;10277162;28;2371;-81
2021/04/12 16:00:07;;;;;;;;;;;3.20;99.90;;;0.99;91.89;96636.72;10302521;28;2198;-81
2021/04/12 16:05:09;;;;;;;;;;;3.20;99.90;;;1.05;93.26;96632.47;10280406;28;1984;-80
2021/04/12 16:10:11;;;;;;;;;;;1.90;99.90;;;1.22;93.53;96646.25;10271203;28;2506;-79
2021/04/12 16:15:13;;;;;;;;;;;3.50;99.90;;;1.20;93.24;96642.97;10294720;28;1960;-81
2021/04/12 16:20:15;;;;;;;;;;;2.10;99.90;;;1.26;93.15;96648.31;10276889;28;2347;-80
2021/04/12 16:25:17;;;;;;;;;;;2.20;99.90;;;1.52;93.58;96652.94;10300788;28;2055;-82
2021/04/12 16:30:19;;;;;;;;;;;2.30;99.90;;;1.49;92.96;96656.00;10284102;28;2147;-83
2021/04/12 16:35:22;;;;;;;;;;;2.40;99.90;;;1.32;92.17;96662.63;10276633;28;2038;-81
2021/04/12 16:40:24;;;;;;;;;;;2.30;99.90;;;1.35;92.62;96660.41;10284922;28;1950;-82
2021/04/12 16:45:26;;;;;;;;;;;3.60;99.90;;;1.39;92.86;96655.53;10297322;28;1985;-82
2021/04/12 16:50:30;;;;;;;;;;;4.00;99.90;;;1.40;92.84;96662.47;10286839;28;2040;-81
2021/04/12 16:55:35;;;;;;;;;;;2.30;99.90;;;1.35;92.49;96667.53;10309035;28;1977;-83
2021/04/12 17:00:45;;;;;;;;;;;2.20;99.90;;;1.11;91.56;96674.09;10301740;28;2005;-83
2021/04/12 17:05:55;;;;;;;;;;;2.20;99.90;;;1.20;92.20;96672.09;10303168;28;1989;-83
2021/04/12 17:11:23;;;;;;;;;;;2.10;99.90;;;1.14;92.07;96667.56;10305933;28;1844;-82
2021/04/12 17:16:57;;;;;;;;;;;2.10;99.90;;;1.00;92.15;96659.53;10321256;28;1652;-83
2021/04/12 17:21:59;;;;;;;;;;;2.00;99.90;;;1.00;92.39;96672.75;10294804;28;1980;-85
2021/04/12 17:27:01;;;;;;;;;;;2.50;99.90;;;1.00;93.11;96678.06;10280892;28;1701;-81
2021/04/12 17:32:03;;;;;;;;;;;1.90;99.90;;;0.92;93.01;96680.84;10300336;28;1804;-80
2021/04/12 17:37:06;;;;;;;;;;;3.60;99.90;;;0.89;92.93;96691.84;10296805;28;1715;-83
2021/04/12 17:42:08;;;;;;;;;;;1.70;99.90;;;0.85;93.03;96687.09;10312898;28;1985;-80
2021/04/12 17:47:10;;;;;;;;;;;2.40;99.90;;;0.99;93.30;96681.72;10323011;28;1711;-81
2021/04/12 17:52:16;;;;;;;;;;;3.80;99.90;;;0.95;93.24;96677.81;10291649;28;1990;-83
2021/04/12 17:57:18;;;;;;;;;;;2.00;99.90;;;1.10;93.34;96692.81;10293905;28;2090;-84
2021/04/12 18:02:21;;;;;;;;;;;3.50;99.90;;;1.23;93.90;96687.63;10298148;28;2011;-80
2021/04/12 18:07:23;;;;;;;;;;;2.40;99.90;;;1.24;92.85;96695.38;10295650;28;1799;-81
2021/04/12 18:12:26;;;;;;;;;;;2.20;99.90;;;1.29;92.55;96686.84;10320102;28;1733;-82
2021/04/12 18:17:28;;;;;;;;;;;2.20;99.90;;;1.37;92.52;96686.69;10324440;28;1776;-81
2021/04/12 18:22:31;;;;;;;;;;;2.20;99.90;;;1.44;92.65;96690.19;10306848;28;1964;-81
2021/04/12 18:32:54;;;;;;;;;;;3.40;99.90;;;1.44;91.34;96711.41;10286688;28;2095;-81
2021/04/12 18:37:56;;;;;;;;;;;2.40;99.90;;;1.34;90.77;96714.41;10313852;28;2136;-83
2021/04/12 18:42:58;;;;;;;;;;;2.40;99.90;;;1.37;91.10;96715.84;10291921;28;2026;-81
2021/04/12 18:48:00;;;;;;;;;;;2.30;99.90;;;1.42;91.24;96723.22;10328641;28;1997;-82
2021/04/12 18:53:02;;;;;;;;;;;2.40;99.90;;;1.50;90.89;96725.72;10281053;28;1935;-81
2021/04/12 18:58:04;;;;;;;;;;;2.50;99.90;;;1.46;90.12;96727.91;10274131;28;1955;-78
2021/04/12 19:03:06;;;;;;;;;;;2.50;99.90;;;1.46;89.76;96730.56;10266473;28;2020;-80
2021/04/12 19:08:08;;;;;;;;;;;2.50;99.90;;;1.53;89.19;96742.06;10263983;28;2150;-78
2021/04/12 19:13:09;;;;;;;;;;;2.50;99.90;;;1.53;88.68;96746.53;10273398;28;2167;-81
2021/04/12 19:18:11;;;;;;;;;;;2.50;99.90;;;1.59;89.16;96746.59;10261517;28;1977;-80
2021/04/12 19:23:13;;;;;;;;;;;2.60;99.90;;;1.55;88.36;96749.81;10265754;28;2001;-80
2021/04/12 19:28:16;;;;;;;;;;;2.60;99.90;;;1.49;89.13;96746.09;10289266;28;1904;-78
2021/04/12 19:33:18;;;;;;;;;;;2.60;99.90;;;1.51;88.47;96735.28;10282810;28;1966;-79
2021/04/12 19:38:37;;;;;;;;;;;2.60;99.90;;;1.46;88.74;96737.69;10288110;28;1840;-81
2021/04/12 19:43:39;;;;;;;;;;;2.50;99.90;;;1.46;88.46;96740.34;10275288;28;1936;-82
2021/04/12 19:48:41;;;;;;;;;;;2.50;99.90;;;1.47;88.45;96731.41;10293551;28;1410;-79
2021/04/12 19:53:43;;;;;;;;;;;2.50;99.90;;;1.46;88.39;96735.88;10291707;28;1820;-80
2021/04/12 19:58:45;;;;;;;;;;;2.50;99.90;;;1.44;87.96;96732.59;10298708;28;1990;-79
2021/04/12 20:03:47;;;;;;;;;;;2.40;99.90;;;1.19;86.91;96723.44;10287214;28;2017;-78
2021/04/12 20:08:49;;;;;;;;;;;2.40;99.90;;;1.33;89.47;96723.34;10257382;28;1841;-77
2021/04/12 20:13:52;;;;;;;;;;;2.30;99.90;;;1.31;88.77;96724.56;10261261;28;1864;-78
2021/04/12 20:18:55;;;;;;;;;;;2.40;99.90;;;1.27;87.78;96725.94;10258620;28;1970;-77
2021/04/12 20:23:57;;;;;;;;;;;2.40;99.90;;;1.19;87.93;96726.09;10256248;28;2168;-77
2021/04/12 20:29:00;;;;;;;;;;;2.30;99.90;;;1.26;88.02;96721.66;10262420;28;2156;-78
2021/04/12 20:34:04;;;;;;;;;;;2.30;99.90;;;1.28;88.71;96722.31;10279906;28;2141;-79
2021/04/12 20:39:07;;;;;;;;;;;3.30;99.90;;;1.30;88.25;96725.56;10288784;28;2355;-79
2021/04/12 20:44:10;;;;;;;;;;;3.00;99.90;;;1.30;88.29;96725.56;10269765;28;2053;-80
2021/04/12 20:49:14;;;;;;;;;;;2.30;99.90;;;1.38;88.79;96722.78;10304854;28;1979;-78
2021/04/12 20:54:16;;;;;;;;;;;2.40;99.90;;;1.39;88.89;96718.28;10269175;28;1902;-77
2021/04/12 20:59:18;;;;;;;;;;;2.40;99.90;;;1.43;88.45;96708.94;10259475;28;2043;-80
2021/04/12 21:04:21;;;;;;;;;;;2.50;99.90;;;1.49;86.93;96709.00;10261014;28;2101;-78
2021/04/12 21:33:38;;;;;;;;;;;3.40;99.90;;;1.12;84.47;96718.09;9841846;30;1673;-78
2021/04/12 21:44:38;;;;;;;;;;;2.20;99.90;;;1.21;86.56;96710.81;9854792;30;1982;-79
2021/04/12 21:49:40;;;;;;;;;;;2.20;99.90;;;1.21;86.20;96716.09;10048635;29;2035;-78
2021/04/12 21:54:45;;;;;;;;;;;4.10;99.90;;;1.26;86.97;96711.06;10176288;29;2074;-79
2021/04/12 22:00:00;;;;;;;;;;;2.30;99.90;;;1.27;86.36;96715.34;10179500;29;2067;-78
2021/04/12 22:05:02;;;;;;;;;;;2.30;99.90;;;1.34;86.32;96710.94;10181290;29;2135;-77
2021/04/12 22:10:10;;;;;;;;;;;2.40;99.90;;;1.24;84.54;96707.78;10273763;28;2111;-80
2021/04/12 22:15:13;;;;;;;;;;;2.30;99.90;;;1.26;85.98;96709.22;10289576;28;1500;-79
2021/04/12 22:20:15;;;;;;;;;;;2.30;99.90;;;1.21;84.88;96700.22;10310855;28;1823;-80
2021/04/12 22:25:16;;;;;;;;;;;2.30;99.90;;;1.21;85.18;96694.91;10292029;28;1981;-77
2021/04/12 22:30:19;;;;;;;;;;;2.30;99.90;;;1.21;85.90;96711.66;10291189;28;2028;-79
2021/04/12 22:35:28;;;;;;;;;;;2.30;99.90;;;1.23;86.82;96699.03;10289246;28;2039;-77
2021/04/12 22:40:33;;;;;;;;;;;2.30;99.90;;;1.21;86.31;96703.72;10307445;28;1968;-80
2021/04/12 22:45:35;;;;;;;;;;;2.30;99.90;;;1.14;86.37;96700.16;10290885;28;2028;-79
2021/04/12 22:50:36;;;;;;;;;;;2.20;99.90;;;1.19;85.96;96696.94;10277567;28;2591;-79
2021/04/12 22:55:39;;;;;;;;;;;2.30;99.90;;;1.21;86.20;96701.06;10294727;28;2056;-79
2021/04/12 23:00:44;;;;;;;;;;;2.30;99.90;;;1.13;85.30;96697.72;10317203;28;2098;-79
2021/04/12 23:05:47;;;;;;;;;;;2.30;99.90;;;1.22;84.88;96688.63;10308624;28;2080;-79
2021/04/12 23:10:50;;;;;;;;;;;2.50;99.90;;;1.16;85.06;96692.06;10319880;28;2017;-79
2021/04/12 23:15:52;;;;;;;;;;;2.20;99.90;;;1.13;85.22;96695.88;10278913;28;1914;-78
2021/04/12 23:20:54;;;;;;;;;;;2.20;99.90;;;1.10;84.80;96682.22;10294918;28;2272;-76
2021/04/12 23:25:56;;;;;;;;;;;2.20;99.90;;;1.06;84.98;96692.38;10293905;28;2018;-77
2021/04/12 23:30:58;;;;;;;;;;;2.20;99.90;;;1.12;84.49;96690.78;10299152;28;1999;-77
2021/04/12 23:35:59;;;;;;;;;;;2.20;99.90;;;1.10;84.74;96687.53;10293196;28;2049;-77
2021/04/12 23:41:01;;;;;;;;;;;2.20;99.90;;;1.07;84.84;96680.75;10284929;28;1989;-80
2021/04/12 23:46:03;;;;;;;;;;;2.20;99.90;;;1.10;84.66;96666.34;10282531;28;1993;-77
2021/04/12 23:51:05;;;;;;;;;;;2.20;99.90;;;1.08;84.76;96672.66;10301855;28;1971;-76
2021/04/12 23:56:07;;;;;;;;;;;2.10;99.90;;;1.10;85.04;96671.63;10300263;28;2000;-77
